sensor_id;sensor_type;location;lat;lon;timestamp;temperature;humidity
32187;DHT22;18686;53.084;8.872;2023-04-16T00:01:05;9.30;99.90
32187;DHT22;18686;53.084;8.872;2023-04-16T00:03:33;9.30;99.90
32187;DHT22;18686;53.084;8.872;2023-04-16T00:06:02;9.30;99.90
32187;DHT22;18686;53.084;8.872;2023-04-16T00:08:30;9.30;99.90
32187;DHT22;18686;53.084;8.872;2023-04-16T00:10:58;9.30;99.90
32187;DHT22;18686;53.084;8.872;2023-04-16T00:13:26;9.30;99.90
32187;DHT22;18686;53.084;8.872;2023-04-16T00:15:56;9.40;99.90
32187;DHT22;18686;53.084;8.872;2023-04-16T00:18:25;9.30;99.90
32187;DHT22;18686;53.084;8.872;2023-04-16T00:20:53;9.30;99.90
32187;DHT22;18686;53.084;8.872;2023-04-16T00:23:21;9.30;99.90
32187;DHT22;18686;53.084;8.872;2023-04-16T00:25:51;9.30;99.90
32187;DHT22;18686;53.084;8.872;2023-04-16T00:28:20;9.30;99.90
32187;DHT22;18686;53.084;8.872;2023-04-16T00:30:50;9.30;99.90
32187;DHT22;18686;53.084;8.872;2023-04-16T00:33:20;9.30;99.90
32187;DHT22;18686;53.084;8.872;2023-04-16T00:35:49;9.30;99.90
32187;DHT22;18686;53.084;8.872;2023-04-16T00:38:17;9.30;99.90
32187;DHT22;18686;53.084;8.872;2023-04-16T00:40:45;9.30;99.90
32187;DHT22;18686;53.084;8.872;2023-04-16T00:43:20;9.20;99.90
32187;DHT22;18686;53.084;8.872;2023-04-16T00:45:48;9.30;99.90
32187;DHT22;18686;53.084;8.872;2023-04-16T00:48:16;9.20;99.90
32187;DHT22;18686;53.084;8.872;2023-04-16T00:50:46;9.20;99.90
32187;DHT22;18686;53.084;8.872;2023-04-16T00:53:15;9.20;99.90
32187;DHT22;18686;53.084;8.872;2023-04-16T00:55:44;9.20;99.90
32187;DHT22;18686;53.084;8.872;2023-04-16T00:58:12;9.20;99.90
32187;DHT22;18686;53.084;8.872;2023-04-16T01:00:41;9.10;99.90
32187;DHT22;18686;53.084;8.872;2023-04-16T01:03:10;9.10;99.90
32187;DHT22;18686;53.084;8.872;2023-04-16T01:05:38;9.10;99.90
32187;DHT22;18686;53.084;8.872;2023-04-16T01:08:16;9.10;99.90
32187;DHT22;18686;53.084;8.872;2023-04-16T01:10:45;9.10;99.90
32187;DHT22;18686;53.084;8.872;2023-04-16T01:13:13;9.10;99.90
32187;DHT22;18686;53.084;8.872;2023-04-16T01:15:41;9.10;99.90
32187;DHT22;18686;53.084;8.872;2023-04-16T01:18:14;9.10;99.90
32187;DHT22;18686;53.084;8.872;2023-04-16T01:20:43;9.10;99.90
32187;DHT22;18686;53.084;8.872;2023-04-16T01:23:12;9.00;99.90
32187;DHT22;18686;53.084;8.872;2023-04-16T01:25:41;9.00;99.90
32187;DHT22;18686;53.084;8.872;2023-04-16T01:28:09;9.10;99.90
32187;DHT22;18686;53.084;8.872;2023-04-16T01:30:38;9.00;99.90
32187;DHT22;18686;53.084;8.872;2023-04-16T01:33:26;9.00;99.90
32187;DHT22;18686;53.084;8.872;2023-04-16T01:35:56;9.00;99.90
32187;DHT22;18686;53.084;8.872;2023-04-16T01:38:24;9.10;99.90
32187;DHT22;18686;53.084;8.872;2023-04-16T01:40:55;9.00;99.90
32187;DHT22;18686;53.084;8.872;2023-04-16T01:43:24;9.00;99.90
32187;DHT22;18686;53.084;8.872;2023-04-16T01:45:53;9.00;99.90
32187;DHT22;18686;53.084;8.872;2023-04-16T01:48:25;9.10;99.90
32187;DHT22;18686;53.084;8.872;2023-04-16T01:50:53;9.00;99.90
32187;DHT22;18686;53.084;8.872;2023-04-16T01:53:23;9.00;99.90
32187;DHT22;18686;53.084;8.872;2023-04-16T01:55:51;9.10;99.90
32187;DHT22;18686;53.084;8.872;2023-04-16T01:58:20;9.10;99.90
32187;DHT22;18686;53.084;8.872;2023-04-16T02:00:48;9.10;99.90
32187;DHT22;18686;53.084;8.872;2023-04-16T02:03:16;9.10;99.90
32187;DHT22;18686;53.084;8.872;2023-04-16T02:05:44;9.10;99.90
32187;DHT22;18686;53.084;8.872;2023-04-16T02:08:13;9.10;99.90
32187;DHT22;18686;53.084;8.872;2023-04-16T02:10:44;9.10;99.90
32187;DHT22;18686;53.084;8.872;2023-04-16T02:13:13;9.10;99.90
32187;DHT22;18686;53.084;8.872;2023-04-16T02:15:45;9.10;99.90
32187;DHT22;18686;53.084;8.872;2023-04-16T02:18:18;9.10;99.90
32187;DHT22;18686;53.084;8.872;2023-04-16T02:20:46;9.10;99.90
32187;DHT22;18686;53.084;8.872;2023-04-16T02:23:15;9.10;99.90
32187;DHT22;18686;53.084;8.872;2023-04-16T02:25:46;9.10;99.90
32187;DHT22;18686;53.084;8.872;2023-04-16T02:28:16;9.00;99.90
32187;DHT22;18686;53.084;8.872;2023-04-16T02:30:45;9.10;99.90
32187;DHT22;18686;53.084;8.872;2023-04-16T02:33:15;9.00;99.90
32187;DHT22;18686;53.084;8.872;2023-04-16T02:35:58;9.00;99.90
32187;DHT22;18686;53.084;8.872;2023-04-16T02:38:26;9.00;99.90
32187;DHT22;18686;53.084;8.872;2023-04-16T02:40:56;9.00;99.90
32187;DHT22;18686;53.084;8.872;2023-04-16T02:43:24;9.00;99.90
32187;DHT22;18686;53.084;8.872;2023-04-16T02:45:52;9.00;99.90
32187;DHT22;18686;53.084;8.872;2023-04-16T02:48:21;9.00;99.90
32187;DHT22;18686;53.084;8.872;2023-04-16T02:50:49;9.00;99.90
32187;DHT22;18686;53.084;8.872;2023-04-16T02:53:18;9.00;99.90
32187;DHT22;18686;53.084;8.872;2023-04-16T02:55:49;8.90;99.90
32187;DHT22;18686;53.084;8.872;2023-04-16T02:58:22;9.00;99.90
32187;DHT22;18686;53.084;8.872;2023-04-16T03:00:51;9.00;99.90
32187;DHT22;18686;53.084;8.872;2023-04-16T03:03:20;8.90;99.90
32187;DHT22;18686;53.084;8.872;2023-04-16T03:05:48;8.90;99.90
32187;DHT22;18686;53.084;8.872;2023-04-16T03:08:17;8.90;99.90
32187;DHT22;18686;53.084;8.872;2023-04-16T03:10:45;8.90;99.90
32187;DHT22;18686;53.084;8.872;2023-04-16T03:13:13;8.90;99.90
32187;DHT22;18686;53.084;8.872;2023-04-16T03:15:48;8.90;99.90
32187;DHT22;18686;53.084;8.872;2023-04-16T03:18:16;8.90;99.90
32187;DHT22;18686;53.084;8.872;2023-04-16T03:20:45;8.90;99.90
32187;DHT22;18686;53.084;8.872;2023-04-16T03:23:13;8.90;99.90
32187;DHT22;18686;53.084;8.872;2023-04-16T03:25:41;8.90;99.90
32187;DHT22;18686;53.084;8.872;2023-04-16T03:28:13;8.90;99.90
32187;DHT22;18686;53.084;8.872;2023-04-16T03:30:42;8.90;99.90
32187;DHT22;18686;53.084;8.872;2023-04-16T03:33:11;8.90;99.90
32187;DHT22;18686;53.084;8.872;2023-04-16T03:35:40;8.90;99.90
32187;DHT22;18686;53.084;8.872;2023-04-16T03:38:08;8.90;99.90
32187;DHT22;18686;53.084;8.872;2023-04-16T03:40:36;8.90;99.90
32187;DHT22;18686;53.084;8.872;2023-04-16T03:43:06;8.90;99.90
32187;DHT22;18686;53.084;8.872;2023-04-16T03:45:34;8.90;99.90
32187;DHT22;18686;53.084;8.872;2023-04-16T03:48:03;8.90;99.90
32187;DHT22;18686;53.084;8.872;2023-04-16T03:50:33;8.90;99.90
32187;DHT22;18686;53.084;8.872;2023-04-16T03:53:02;8.90;99.90
32187;DHT22;18686;53.084;8.872;2023-04-16T03:55:31;8.90;99.90
32187;DHT22;18686;53.084;8.872;2023-04-16T03:57:59;8.90;99.90
32187;DHT22;18686;53.084;8.872;2023-04-16T04:00:30;8.90;99.90
32187;DHT22;18686;53.084;8.872;2023-04-16T04:03:05;8.90;99.90
32187;DHT22;18686;53.084;8.872;2023-04-16T04:05:36;8.90;99.90
32187;DHT22;18686;53.084;8.872;2023-04-16T04:08:06;8.90;99.90
32187;DHT22;18686;53.084;8.872;2023-04-16T04:10:35;8.90;99.90
32187;DHT22;18686;53.084;8.872;2023-04-16T04:13:05;8.80;99.90
32187;DHT22;18686;53.084;8.872;2023-04-16T04:15:34;8.80;99.90
32187;DHT22;18686;53.084;8.872;2023-04-16T04:18:04;8.80;99.90
32187;DHT22;18686;53.084;8.872;2023-04-16T04:20:32;8.80;99.90
32187;DHT22;18686;53.084;8.872;2023-04-16T04:23:02;8.80;99.90
32187;DHT22;18686;53.084;8.872;2023-04-16T04:25:31;8.80;99.90
32187;DHT22;18686;53.084;8.872;2023-04-16T04:27:59;8.80;99.90
32187;DHT22;18686;53.084;8.872;2023-04-16T04:30:28;8.80;99.90
32187;DHT22;18686;53.084;8.872;2023-04-16T04:32:56;8.80;99.90
32187;DHT22;18686;53.084;8.872;2023-04-16T04:35:25;8.80;99.90
32187;DHT22;18686;53.084;8.872;2023-04-16T04:37:53;8.90;99.90
32187;DHT22;18686;53.084;8.872;2023-04-16T04:40:23;8.80;99.90
32187;DHT22;18686;53.084;8.872;2023-04-16T04:42:51;8.90;99.90
32187;DHT22;18686;53.084;8.872;2023-04-16T04:45:22;8.90;99.90
32187;DHT22;18686;53.084;8.872;2023-04-16T04:47:52;8.90;99.90
32187;DHT22;18686;53.084;8.872;2023-04-16T04:50:21;8.90;99.90
32187;DHT22;18686;53.084;8.872;2023-04-16T04:52:49;9.00;99.90
32187;DHT22;18686;53.084;8.872;2023-04-16T04:55:19;9.00;99.90
32187;DHT22;18686;53.084;8.872;2023-04-16T04:57:49;9.00;99.90
32187;DHT22;18686;53.084;8.872;2023-04-16T05:00:17;9.10;99.90
32187;DHT22;18686;53.084;8.872;2023-04-16T05:02:53;9.00;99.90
32187;DHT22;18686;53.084;8.872;2023-04-16T05:05:21;9.10;99.90
32187;DHT22;18686;53.084;8.872;2023-04-16T05:07:49;9.10;99.90
32187;DHT22;18686;53.084;8.872;2023-04-16T05:10:17;9.20;99.90
32187;DHT22;18686;53.084;8.872;2023-04-16T05:12:46;9.20;99.90
32187;DHT22;18686;53.084;8.872;2023-04-16T05:15:16;9.20;99.90
32187;DHT22;18686;53.084;8.872;2023-04-16T05:17:44;9.20;99.90
32187;DHT22;18686;53.084;8.872;2023-04-16T05:20:13;9.20;99.90
32187;DHT22;18686;53.084;8.872;2023-04-16T05:22:41;9.30;99.90
32187;DHT22;18686;53.084;8.872;2023-04-16T05:25:09;9.30;99.90
32187;DHT22;18686;53.084;8.872;2023-04-16T05:27:37;9.30;99.90
32187;DHT22;18686;53.084;8.872;2023-04-16T05:30:07;9.40;99.90
32187;DHT22;18686;53.084;8.872;2023-04-16T05:32:38;9.40;99.90
32187;DHT22;18686;53.084;8.872;2023-04-16T05:35:07;9.40;99.90
32187;DHT22;18686;53.084;8.872;2023-04-16T05:37:35;9.50;99.90
32187;DHT22;18686;53.084;8.872;2023-04-16T05:40:04;9.50;99.90
32187;DHT22;18686;53.084;8.872;2023-04-16T05:42:32;9.50;99.90
32187;DHT22;18686;53.084;8.872;2023-04-16T05:45:01;9.60;99.90
32187;DHT22;18686;53.084;8.872;2023-04-16T05:47:31;9.60;99.90
32187;DHT22;18686;53.084;8.872;2023-04-16T05:50:05;9.60;99.90
32187;DHT22;18686;53.084;8.872;2023-04-16T05:52:33;9.70;99.90
32187;DHT22;18686;53.084;8.872;2023-04-16T05:55:01;9.70;99.90
32187;DHT22;18686;53.084;8.872;2023-04-16T05:57:30;9.70;99.90
32187;DHT22;18686;53.084;8.872;2023-04-16T05:59:58;9.80;99.90
32187;DHT22;18686;53.084;8.872;2023-04-16T06:02:26;9.80;99.90
32187;DHT22;18686;53.084;8.872;2023-04-16T06:04:56;9.80;99.90
32187;DHT22;18686;53.084;8.872;2023-04-16T06:07:26;9.80;99.90
32187;DHT22;18686;53.084;8.872;2023-04-16T06:09:54;9.90;99.90
32187;DHT22;18686;53.084;8.872;2023-04-16T06:12:22;9.90;99.90
32187;DHT22;18686;53.084;8.872;2023-04-16T06:14:50;9.90;99.90
32187;DHT22;18686;53.084;8.872;2023-04-16T06:17:19;9.90;99.90
32187;DHT22;18686;53.084;8.872;2023-04-16T06:19:47;10.00;99.90
32187;DHT22;18686;53.084;8.872;2023-04-16T06:22:15;10.00;99.90
32187;DHT22;18686;53.084;8.872;2023-04-16T06:24:45;10.00;99.90
32187;DHT22;18686;53.084;8.872;2023-04-16T06:27:13;10.00;99.90
32187;DHT22;18686;53.084;8.872;2023-04-16T06:29:41;10.10;99.90
32187;DHT22;18686;53.084;8.872;2023-04-16T06:32:09;10.20;99.90
32187;DHT22;18686;53.084;8.872;2023-04-16T06:34:37;10.20;99.90
32187;DHT22;18686;53.084;8.872;2023-04-16T06:37:06;10.30;99.90
32187;DHT22;18686;53.084;8.872;2023-04-16T06:39:36;10.40;99.90
32187;DHT22;18686;53.084;8.872;2023-04-16T06:42:06;10.40;99.90
32187;DHT22;18686;53.084;8.872;2023-04-16T06:44:34;10.50;99.90
32187;DHT22;18686;53.084;8.872;2023-04-16T06:47:02;10.50;99.90
32187;DHT22;18686;53.084;8.872;2023-04-16T06:49:31;10.50;99.90
32187;DHT22;18686;53.084;8.872;2023-04-16T06:51:59;10.50;99.90
32187;DHT22;18686;53.084;8.872;2023-04-16T06:54:30;10.60;99.90
32187;DHT22;18686;53.084;8.872;2023-04-16T06:56:58;10.60;99.90
32187;DHT22;18686;53.084;8.872;2023-04-16T06:59:28;10.60;99.90
32187;DHT22;18686;53.084;8.872;2023-04-16T07:01:56;10.60;99.90
32187;DHT22;18686;53.084;8.872;2023-04-16T07:04:24;10.60;99.90
32187;DHT22;18686;53.084;8.872;2023-04-16T07:06:52;10.60;99.90
32187;DHT22;18686;53.084;8.872;2023-04-16T07:09:21;10.60;99.90
32187;DHT22;18686;53.084;8.872;2023-04-16T07:11:49;10.60;99.90
32187;DHT22;18686;53.084;8.872;2023-04-16T07:14:17;10.60;99.90
32187;DHT22;18686;53.084;8.872;2023-04-16T07:16:47;10.60;99.90
32187;DHT22;18686;53.084;8.872;2023-04-16T07:19:15;10.60;99.90
32187;DHT22;18686;53.084;8.872;2023-04-16T07:21:43;10.60;99.90
32187;DHT22;18686;53.084;8.872;2023-04-16T07:24:13;10.60;99.90
32187;DHT22;18686;53.084;8.872;2023-04-16T07:26:41;10.60;99.90
32187;DHT22;18686;53.084;8.872;2023-04-16T07:29:09;10.60;99.90
32187;DHT22;18686;53.084;8.872;2023-04-16T07:31:38;10.70;99.90
32187;DHT22;18686;53.084;8.872;2023-04-16T07:34:07;10.70;99.90
32187;DHT22;18686;53.084;8.872;2023-04-16T07:36:35;10.80;99.90
32187;DHT22;18686;53.084;8.872;2023-04-16T07:39:04;10.80;99.90
32187;DHT22;18686;53.084;8.872;2023-04-16T07:41:32;10.90;99.90
32187;DHT22;18686;53.084;8.872;2023-04-16T07:44:01;11.00;99.90
32187;DHT22;18686;53.084;8.872;2023-04-16T07:46:29;11.10;99.90
32187;DHT22;18686;53.084;8.872;2023-04-16T07:49:14;11.20;99.90
32187;DHT22;18686;53.084;8.872;2023-04-16T07:51:42;11.30;99.90
32187;DHT22;18686;53.084;8.872;2023-04-16T07:54:11;11.30;99.90
32187;DHT22;18686;53.084;8.872;2023-04-16T07:56:39;11.40;99.90
32187;DHT22;18686;53.084;8.872;2023-04-16T07:59:07;11.40;99.90
32187;DHT22;18686;53.084;8.872;2023-04-16T08:01:51;11.50;99.90
32187;DHT22;18686;53.084;8.872;2023-04-16T08:04:20;11.50;99.90
32187;DHT22;18686;53.084;8.872;2023-04-16T08:06:52;11.60;99.90
32187;DHT22;18686;53.084;8.872;2023-04-16T08:09:22;11.70;99.90
32187;DHT22;18686;53.084;8.872;2023-04-16T08:11:50;11.70;99.90
32187;DHT22;18686;53.084;8.872;2023-04-16T08:14:19;11.70;99.90
32187;DHT22;18686;53.084;8.872;2023-04-16T08:16:48;11.80;99.90
32187;DHT22;18686;53.084;8.872;2023-04-16T08:19:16;11.90;99.90
32187;DHT22;18686;53.084;8.872;2023-04-16T08:21:46;11.90;99.90
32187;DHT22;18686;53.084;8.872;2023-04-16T08:24:14;12.00;99.90
32187;DHT22;18686;53.084;8.872;2023-04-16T08:26:42;12.10;99.90
32187;DHT22;18686;53.084;8.872;2023-04-16T08:29:11;12.20;99.90
32187;DHT22;18686;53.084;8.872;2023-04-16T08:31:40;12.40;99.90
32187;DHT22;18686;53.084;8.872;2023-04-16T08:34:09;12.50;99.90
32187;DHT22;18686;53.084;8.872;2023-04-16T08:36:38;12.70;99.90
32187;DHT22;18686;53.084;8.872;2023-04-16T08:39:08;12.80;99.90
32187;DHT22;18686;53.084;8.872;2023-04-16T08:41:40;12.90;99.90
32187;DHT22;18686;53.084;8.872;2023-04-16T08:44:13;13.00;99.90
32187;DHT22;18686;53.084;8.872;2023-04-16T08:46:41;13.20;99.90
32187;DHT22;18686;53.084;8.872;2023-04-16T08:49:14;13.30;99.90
32187;DHT22;18686;53.084;8.872;2023-04-16T08:51:48;13.40;99.90
32187;DHT22;18686;53.084;8.872;2023-04-16T08:54:27;13.60;99.90
32187;DHT22;18686;53.084;8.872;2023-04-16T08:56:58;13.70;99.90
32187;DHT22;18686;53.084;8.872;2023-04-16T08:59:28;13.80;99.90
32187;DHT22;18686;53.084;8.872;2023-04-16T09:01:57;14.00;99.90
32187;DHT22;18686;53.084;8.872;2023-04-16T09:04:26;14.10;99.90
32187;DHT22;18686;53.084;8.872;2023-04-16T09:06:55;14.20;99.90
32187;DHT22;18686;53.084;8.872;2023-04-16T09:09:26;14.40;99.90
32187;DHT22;18686;53.084;8.872;2023-04-16T09:11:55;14.50;99.90
32187;DHT22;18686;53.084;8.872;2023-04-16T09:14:23;14.70;99.90
32187;DHT22;18686;53.084;8.872;2023-04-16T09:16:52;14.90;99.90
32187;DHT22;18686;53.084;8.872;2023-04-16T09:19:22;15.00;99.90
32187;DHT22;18686;53.084;8.872;2023-04-16T09:21:50;15.10;98.30
32187;DHT22;18686;53.084;8.872;2023-04-16T09:24:18;15.30;98.20
32187;DHT22;18686;53.084;8.872;2023-04-16T09:26:49;15.50;97.90
32187;DHT22;18686;53.084;8.872;2023-04-16T09:29:32;15.80;96.90
32187;DHT22;18686;53.084;8.872;2023-04-16T09:32:03;16.10;96.00
32187;DHT22;18686;53.084;8.872;2023-04-16T09:34:32;16.30;95.20
32187;DHT22;18686;53.084;8.872;2023-04-16T09:37:16;16.60;93.50
32187;DHT22;18686;53.084;8.872;2023-04-16T09:39:52;16.90;93.70
32187;DHT22;18686;53.084;8.872;2023-04-16T09:42:23;17.30;92.10
32187;DHT22;18686;53.084;8.872;2023-04-16T09:44:53;17.60;91.40
32187;DHT22;18686;53.084;8.872;2023-04-16T09:47:37;18.00;89.50
32187;DHT22;18686;53.084;8.872;2023-04-16T09:50:07;18.30;86.00
32187;DHT22;18686;53.084;8.872;2023-04-16T09:52:38;18.60;83.90
32187;DHT22;18686;53.084;8.872;2023-04-16T09:55:07;18.80;80.00
32187;DHT22;18686;53.084;8.872;2023-04-16T09:57:37;19.00;77.90
32187;DHT22;18686;53.084;8.872;2023-04-16T10:00:06;19.10;75.70
32187;DHT22;18686;53.084;8.872;2023-04-16T10:02:38;19.00;73.20
32187;DHT22;18686;53.084;8.872;2023-04-16T10:05:08;18.80;71.50
32187;DHT22;18686;53.084;8.872;2023-04-16T10:07:36;18.70;72.50
32187;DHT22;18686;53.084;8.872;2023-04-16T10:10:08;18.50;72.80
32187;DHT22;18686;53.084;8.872;2023-04-16T10:12:38;18.40;73.60
32187;DHT22;18686;53.084;8.872;2023-04-16T10:15:07;18.30;73.80
32187;DHT22;18686;53.084;8.872;2023-04-16T10:17:36;18.20;73.40
32187;DHT22;18686;53.084;8.872;2023-04-16T10:20:07;18.00;74.00
32187;DHT22;18686;53.084;8.872;2023-04-16T10:22:36;17.80;74.30
32187;DHT22;18686;53.084;8.872;2023-04-16T10:25:06;17.80;74.70
32187;DHT22;18686;53.084;8.872;2023-04-16T10:27:36;17.80;74.80
32187;DHT22;18686;53.084;8.872;2023-04-16T10:30:07;17.90;75.40
32187;DHT22;18686;53.084;8.872;2023-04-16T10:32:37;18.00;75.30
32187;DHT22;18686;53.084;8.872;2023-04-16T10:35:06;18.30;74.00
32187;DHT22;18686;53.084;8.872;2023-04-16T10:37:36;18.60;72.80
32187;DHT22;18686;53.084;8.872;2023-04-16T10:40:23;18.80;72.30
32187;DHT22;18686;53.084;8.872;2023-04-16T10:42:55;18.90;71.10
32187;DHT22;18686;53.084;8.872;2023-04-16T10:45:30;18.90;70.10
32187;DHT22;18686;53.084;8.872;2023-04-16T10:48:03;18.90;70.50
32187;DHT22;18686;53.084;8.872;2023-04-16T10:50:35;19.10;69.80
32187;DHT22;18686;53.084;8.872;2023-04-16T10:53:19;19.00;69.20
32187;DHT22;18686;53.084;8.872;2023-04-16T10:55:56;19.10;68.90
32187;DHT22;18686;53.084;8.872;2023-04-16T10:58:28;19.30;68.10
32187;DHT22;18686;53.084;8.872;2023-04-16T11:00:59;19.20;68.50
32187;DHT22;18686;53.084;8.872;2023-04-16T11:03:29;19.10;68.30
32187;DHT22;18686;53.084;8.872;2023-04-16T11:06:15;18.90;69.00
32187;DHT22;18686;53.084;8.872;2023-04-16T11:08:44;18.60;69.00
32187;DHT22;18686;53.084;8.872;2023-04-16T11:11:37;18.40;70.30
32187;DHT22;18686;53.084;8.872;2023-04-16T11:14:05;18.30;70.80
32187;DHT22;18686;53.084;8.872;2023-04-16T11:16:39;18.30;70.10
32187;DHT22;18686;53.084;8.872;2023-04-16T11:19:15;18.40;70.10
32187;DHT22;18686;53.084;8.872;2023-04-16T11:21:44;18.50;70.90
32187;DHT22;18686;53.084;8.872;2023-04-16T11:24:12;18.70;70.10
32187;DHT22;18686;53.084;8.872;2023-04-16T11:26:40;18.90;69.20
32187;DHT22;18686;53.084;8.872;2023-04-16T11:29:13;19.20;68.10
32187;DHT22;18686;53.084;8.872;2023-04-16T11:31:49;19.50;67.00
32187;DHT22;18686;53.084;8.872;2023-04-16T11:34:18;19.80;66.80
32187;DHT22;18686;53.084;8.872;2023-04-16T11:36:46;20.00;65.70
32187;DHT22;18686;53.084;8.872;2023-04-16T11:39:15;20.20;64.80
32187;DHT22;18686;53.084;8.872;2023-04-16T11:41:43;20.30;64.80
32187;DHT22;18686;53.084;8.872;2023-04-16T11:44:19;20.60;63.50
32187;DHT22;18686;53.084;8.872;2023-04-16T11:46:50;20.90;63.50
32187;DHT22;18686;53.084;8.872;2023-04-16T11:49:26;21.10;62.80
32187;DHT22;18686;53.084;8.872;2023-04-16T11:51:55;21.20;62.20
32187;DHT22;18686;53.084;8.872;2023-04-16T11:54:24;21.40;60.50
32187;DHT22;18686;53.084;8.872;2023-04-16T11:56:52;21.50;59.20
32187;DHT22;18686;53.084;8.872;2023-04-16T11:59:21;21.60;59.10
32187;DHT22;18686;53.084;8.872;2023-04-16T12:01:52;21.30;58.40
32187;DHT22;18686;53.084;8.872;2023-04-16T12:04:24;21.10;58.70
32187;DHT22;18686;53.084;8.872;2023-04-16T12:07:06;20.90;59.40
32187;DHT22;18686;53.084;8.872;2023-04-16T12:09:35;20.80;59.70
32187;DHT22;18686;53.084;8.872;2023-04-16T12:12:24;20.60;60.10
32187;DHT22;18686;53.084;8.872;2023-04-16T12:14:56;20.30;61.00
32187;DHT22;18686;53.084;8.872;2023-04-16T12:17:27;20.00;61.40
32187;DHT22;18686;53.084;8.872;2023-04-16T12:19:57;19.80;61.80
32187;DHT22;18686;53.084;8.872;2023-04-16T12:22:27;19.50;64.00
32187;DHT22;18686;53.084;8.872;2023-04-16T12:24:57;19.30;64.90
32187;DHT22;18686;53.084;8.872;2023-04-16T12:27:40;19.00;63.90
32187;DHT22;18686;53.084;8.872;2023-04-16T12:30:09;18.80;65.30
32187;DHT22;18686;53.084;8.872;2023-04-16T12:32:39;18.80;65.50
32187;DHT22;18686;53.084;8.872;2023-04-16T12:35:08;18.80;65.80
32187;DHT22;18686;53.084;8.872;2023-04-16T12:37:36;18.80;66.40
32187;DHT22;18686;53.084;8.872;2023-04-16T12:40:05;18.80;66.10
32187;DHT22;18686;53.084;8.872;2023-04-16T12:42:34;18.80;66.40
32187;DHT22;18686;53.084;8.872;2023-04-16T12:45:03;18.90;65.90
32187;DHT22;18686;53.084;8.872;2023-04-16T12:47:31;18.80;65.90
32187;DHT22;18686;53.084;8.872;2023-04-16T12:50:01;18.70;66.10
32187;DHT22;18686;53.084;8.872;2023-04-16T12:52:29;18.60;66.90
32187;DHT22;18686;53.084;8.872;2023-04-16T12:54:58;18.50;67.00
32187;DHT22;18686;53.084;8.872;2023-04-16T12:57:26;18.30;68.70
32187;DHT22;18686;53.084;8.872;2023-04-16T12:59:54;18.20;68.40
32187;DHT22;18686;53.084;8.872;2023-04-16T13:02:23;18.10;69.00
32187;DHT22;18686;53.084;8.872;2023-04-16T13:04:52;17.90;69.60
32187;DHT22;18686;53.084;8.872;2023-04-16T13:07:22;17.80;69.70
32187;DHT22;18686;53.084;8.872;2023-04-16T13:09:55;17.80;70.10
32187;DHT22;18686;53.084;8.872;2023-04-16T13:12:23;17.70;70.10
32187;DHT22;18686;53.084;8.872;2023-04-16T13:14:52;17.70;70.40
32187;DHT22;18686;53.084;8.872;2023-04-16T13:17:21;17.70;71.50
32187;DHT22;18686;53.084;8.872;2023-04-16T13:19:49;17.80;71.20
32187;DHT22;18686;53.084;8.872;2023-04-16T13:22:17;18.00;71.20
32187;DHT22;18686;53.084;8.872;2023-04-16T13:24:47;18.10;70.80
32187;DHT22;18686;53.084;8.872;2023-04-16T13:27:15;18.20;70.90
32187;DHT22;18686;53.084;8.872;2023-04-16T13:29:43;18.20;71.10
32187;DHT22;18686;53.084;8.872;2023-04-16T13:32:11;18.20;69.50
32187;DHT22;18686;53.084;8.872;2023-04-16T13:34:40;18.20;69.40
32187;DHT22;18686;53.084;8.872;2023-04-16T13:37:09;18.20;69.50
32187;DHT22;18686;53.084;8.872;2023-04-16T13:39:37;18.20;70.00
32187;DHT22;18686;53.084;8.872;2023-04-16T13:42:07;18.20;70.40
32187;DHT22;18686;53.084;8.872;2023-04-16T13:44:35;18.20;69.70
32187;DHT22;18686;53.084;8.872;2023-04-16T13:47:03;18.10;69.50
32187;DHT22;18686;53.084;8.872;2023-04-16T13:49:32;18.00;69.80
32187;DHT22;18686;53.084;8.872;2023-04-16T13:52:02;17.80;69.70
32187;DHT22;18686;53.084;8.872;2023-04-16T13:54:30;17.60;70.70
32187;DHT22;18686;53.084;8.872;2023-04-16T13:56:58;17.40;71.00
32187;DHT22;18686;53.084;8.872;2023-04-16T13:59:28;17.30;71.80
32187;DHT22;18686;53.084;8.872;2023-04-16T14:01:56;17.10;72.60
32187;DHT22;18686;53.084;8.872;2023-04-16T14:04:24;17.00;73.40
32187;DHT22;18686;53.084;8.872;2023-04-16T14:06:52;17.00;73.60
32187;DHT22;18686;53.084;8.872;2023-04-16T14:09:21;16.90;74.80
32187;DHT22;18686;53.084;8.872;2023-04-16T14:11:50;16.90;75.30
32187;DHT22;18686;53.084;8.872;2023-04-16T14:14:18;16.80;78.60
32187;DHT22;18686;53.084;8.872;2023-04-16T14:16:47;16.70;78.90
32187;DHT22;18686;53.084;8.872;2023-04-16T14:19:16;16.70;79.20
32187;DHT22;18686;53.084;8.872;2023-04-16T14:21:44;16.60;79.90
32187;DHT22;18686;53.084;8.872;2023-04-16T14:24:12;16.50;79.60
32187;DHT22;18686;53.084;8.872;2023-04-16T14:26:42;16.40;79.30
32187;DHT22;18686;53.084;8.872;2023-04-16T14:29:10;16.40;79.70
32187;DHT22;18686;53.084;8.872;2023-04-16T14:31:38;16.40;80.30
32187;DHT22;18686;53.084;8.872;2023-04-16T14:34:08;16.30;81.10
32187;DHT22;18686;53.084;8.872;2023-04-16T14:36:36;16.20;81.60
32187;DHT22;18686;53.084;8.872;2023-04-16T14:39:05;16.20;81.90
32187;DHT22;18686;53.084;8.872;2023-04-16T14:41:33;16.20;81.70
32187;DHT22;18686;53.084;8.872;2023-04-16T14:44:01;16.20;82.50
32187;DHT22;18686;53.084;8.872;2023-04-16T14:46:32;16.20;82.30
32187;DHT22;18686;53.084;8.872;2023-04-16T14:49:00;16.30;83.00
32187;DHT22;18686;53.084;8.872;2023-04-16T14:51:30;16.30;82.40
32187;DHT22;18686;53.084;8.872;2023-04-16T14:53:58;16.40;82.70
32187;DHT22;18686;53.084;8.872;2023-04-16T14:56:27;16.40;83.00
32187;DHT22;18686;53.084;8.872;2023-04-16T14:58:55;16.40;83.70
32187;DHT22;18686;53.084;8.872;2023-04-16T15:01:23;16.40;84.10
32187;DHT22;18686;53.084;8.872;2023-04-16T15:03:55;16.30;84.00
32187;DHT22;18686;53.084;8.872;2023-04-16T15:06:26;16.20;84.30
32187;DHT22;18686;53.084;8.872;2023-04-16T15:08:56;16.20;84.50
32187;DHT22;18686;53.084;8.872;2023-04-16T15:11:24;16.20;84.30
32187;DHT22;18686;53.084;8.872;2023-04-16T15:13:52;16.20;84.40
32187;DHT22;18686;53.084;8.872;2023-04-16T15:16:20;16.30;84.20
32187;DHT22;18686;53.084;8.872;2023-04-16T15:18:49;16.30;84.40
32187;DHT22;18686;53.084;8.872;2023-04-16T15:21:17;16.30;84.50
32187;DHT22;18686;53.084;8.872;2023-04-16T15:23:45;16.30;84.70
32187;DHT22;18686;53.084;8.872;2023-04-16T15:26:15;16.20;85.00
32187;DHT22;18686;53.084;8.872;2023-04-16T15:28:43;16.20;86.60
32187;DHT22;18686;53.084;8.872;2023-04-16T15:31:11;16.20;86.20
32187;DHT22;18686;53.084;8.872;2023-04-16T15:33:39;16.10;86.40
32187;DHT22;18686;53.084;8.872;2023-04-16T15:36:08;16.10;86.90
32187;DHT22;18686;53.084;8.872;2023-04-16T15:38:37;16.00;87.50
32187;DHT22;18686;53.084;8.872;2023-04-16T15:41:05;16.10;87.00
32187;DHT22;18686;53.084;8.872;2023-04-16T15:43:34;16.00;86.70
32187;DHT22;18686;53.084;8.872;2023-04-16T15:46:02;16.00;87.40
32187;DHT22;18686;53.084;8.872;2023-04-16T15:48:31;16.10;87.30
32187;DHT22;18686;53.084;8.872;2023-04-16T15:50:59;16.00;87.60
32187;DHT22;18686;53.084;8.872;2023-04-16T15:53:27;16.10;86.70